createdAt,value
2019-02-07T10:30:01.798Z,7.62
2019-02-07T10:32:58.159Z,7.75
2019-02-07T10:35:49.731Z,7.58
2019-02-07T10:38:41.141Z,7.55
2019-02-07T10:41:31.859Z,7.65
2019-02-07T10:44:27.881Z,6.78
2019-02-07T10:47:18.511Z,8.40
2019-02-07T10:50:19.325Z,6.95
2019-02-07T10:53:17.774Z,7.00
2019-02-07T10:56:13.351Z,6.80
2019-02-07T10:59:08.621Z,7.47
2019-02-07T11:02:01.541Z,5.60
2019-02-07T11:04:53.094Z,6.87
2019-02-07T11:07:44.178Z,7.28
2019-02-07T11:10:48.135Z,6.03
2019-02-07T11:13:52.866Z,6.80
2019-02-07T11:16:45.099Z,6.97
2019-02-07T11:19:38.403Z,6.87
2019-02-07T11:22:34.515Z,5.95
2019-02-07T11:25:40.318Z,7.20
2019-02-07T11:28:41.717Z,6.15
2019-02-07T11:31:32.921Z,6.97
2019-02-07T11:34:25.260Z,6.95
2019-02-07T11:37:15.559Z,5.83
2019-02-07T11:39:58.266Z,6.25
2019-02-07T11:42:53.702Z,7.33
2019-02-07T11:45:41.511Z,6.42
2019-02-07T11:48:34.473Z,5.65
2019-02-07T11:51:36.212Z,6.37
2019-02-07T11:54:37.291Z,5.00
2019-02-07T11:57:20.757Z,5.28
2019-02-07T12:00:19.619Z,6.00
2019-02-07T12:03:12.657Z,5.67
2019-02-07T12:06:03.893Z,6.17
2019-02-07T12:08:54.501Z,6.20
2019-02-07T12:11:51.945Z,6.30
2019-02-07T12:14:53.492Z,6.42
2019-02-07T12:17:44.919Z,6.00
2019-02-07T12:21:18.033Z,5.78
2019-02-07T12:24:11.758Z,5.85
2019-02-07T12:27:03.375Z,7.10
2019-02-07T12:29:55.975Z,5.60
2019-02-07T12:32:43.689Z,5.72
2019-02-07T12:35:56.222Z,5.75
2019-02-07T12:39:05.674Z,5.72
2019-02-07T12:42:06.629Z,4.87
2019-02-07T12:44:58.237Z,4.20
2019-02-07T12:48:06.131Z,3.87
2019-02-07T12:50:49.982Z,4.55
2019-02-07T12:53:42.262Z,5.33
2019-02-07T12:56:36.519Z,4.17
2019-02-07T12:59:22.953Z,4.92
2019-02-07T13:02:14.375Z,4.20
2019-02-07T13:05:12.102Z,4.62
2019-02-07T13:08:02.690Z,4.70
2019-02-07T13:11:07.705Z,4.55
2019-02-07T13:13:51.719Z,4.83
2019-02-07T13:16:51.232Z,4.58
2019-02-07T13:19:42.921Z,3.90
2019-02-07T13:22:44.340Z,3.60
2019-02-07T13:25:34.794Z,3.55
2019-02-07T13:28:21.605Z,3.77
2019-02-07T13:31:12.322Z,3.40
2019-02-07T13:34:14.483Z,2.77
2019-02-07T13:37:25.627Z,3.60
2019-02-07T13:40:09.564Z,3.12
2019-02-07T13:43:08.129Z,4.50
2019-02-07T13:45:59.572Z,3.42
2019-02-07T13:48:51.357Z,4.37
2019-02-07T13:51:52.668Z,3.40
2019-02-07T13:54:44.703Z,3.27
2019-02-07T13:57:37.743Z,3.92
2019-02-07T14:00:30.115Z,3.65
2019-02-07T14:03:37.669Z,4.17
2019-02-07T14:06:34.670Z,3.55
2019-02-07T14:09:42.070Z,4.47
2019-02-07T14:12:46.375Z,4.12
2019-02-07T14:15:32.039Z,5.08
2019-02-07T14:18:23.570Z,3.98
2019-02-07T14:21:15.095Z,4.62
2019-02-07T14:24:06.644Z,5.33
2019-02-07T14:26:58.110Z,5.12
2019-02-07T14:29:46.716Z,4.75
2019-02-07T14:32:57.235Z,4.47
2019-02-07T14:35:52.270Z,5.22
2019-02-07T14:38:47.866Z,4.95
2019-02-07T14:41:46.444Z,4.47
2019-02-07T14:44:37.891Z,4.62
2019-02-07T14:47:11.328Z,5.33
2019-02-07T14:49:44.483Z,4.08
2019-02-07T14:52:21.842Z,4.90
2019-02-07T14:54:58.949Z,5.35
2019-02-07T14:57:32.904Z,4.58
2019-02-07T15:00:09.918Z,4.10
2019-02-07T15:02:43.574Z,4.65
2019-02-07T15:05:17.896Z,4.67
2019-02-07T15:07:51.873Z,3.95
2019-02-07T15:10:25.765Z,4.87
2019-02-07T15:13:01.362Z,4.97
2019-02-07T15:15:35.129Z,3.52
2019-02-07T15:18:08.633Z,3.35
2019-02-07T15:20:42.625Z,4.78
2019-02-07T15:23:34.873Z,3.95
2019-02-07T15:26:09.015Z,3.95
2019-02-07T15:28:41.974Z,4.03
2019-02-07T15:31:15.900Z,3.58
2019-02-07T15:33:48.773Z,3.25
2019-02-07T15:36:22.148Z,4.30
2019-02-07T15:38:55.362Z,4.05
2019-02-07T15:41:31.612Z,3.62
2019-02-07T15:44:05.796Z,4.00
2019-02-07T15:46:39.457Z,4.28
2019-02-07T15:49:15.934Z,3.20
2019-02-07T15:51:49.517Z,3.62
2019-02-07T15:54:23.817Z,3.30
2019-02-07T15:56:58.441Z,3.42
2019-02-07T15:59:47.907Z,3.22
2019-02-07T16:02:28.279Z,3.75
2019-02-07T16:05:07.080Z,2.85
2019-02-07T16:07:40.175Z,2.70
2019-02-07T16:10:16.475Z,2.85
2019-02-07T16:12:49.455Z,3.20
2019-02-07T16:15:23.259Z,3.62
2019-02-07T16:17:57.980Z,3.80
2019-02-07T16:20:31.689Z,2.72
2019-02-07T16:23:05.167Z,3.00
2019-02-07T16:25:37.981Z,2.30
2019-02-07T16:28:11.048Z,3.80
2019-02-07T16:30:50.348Z,3.00
2019-02-07T16:33:24.640Z,3.33
2019-02-07T16:36:00.639Z,3.20
2019-02-07T16:38:34.284Z,3.10
2019-02-07T16:41:10.544Z,2.70
2019-02-07T16:43:42.116Z,3.37
2019-02-07T16:46:15.957Z,2.12
2019-02-07T16:48:48.605Z,3.20
2019-02-07T16:51:21.658Z,2.60
2019-02-07T16:53:55.316Z,2.45
2019-02-07T16:56:28.625Z,3.10
2019-02-07T16:59:01.866Z,2.60
2019-02-07T17:01:35.459Z,2.50
2019-02-07T17:04:08.359Z,2.35
2019-02-07T17:06:44.075Z,2.20
2019-02-07T17:09:47.587Z,2.17
2019-02-07T17:12:24.520Z,2.17
2019-02-07T17:14:59.110Z,2.30
2019-02-07T17:17:56.134Z,2.45
2019-02-07T17:20:36.022Z,3.65
2019-02-07T17:23:15.388Z,1.50
2019-02-07T17:25:56.394Z,3.60
2019-02-07T17:28:34.593Z,2.25
2019-02-07T17:31:11.235Z,2.65
2019-02-07T17:33:49.721Z,1.82
2019-02-07T17:36:30.800Z,2.08
2019-02-07T17:39:13.306Z,2.10
2019-02-07T17:41:54.348Z,2.65
2019-02-07T17:44:32.877Z,5.08
2019-02-07T17:47:16.298Z,2.30
2019-02-07T17:49:55.904Z,2.00
2019-02-07T17:52:33.693Z,2.40
2019-02-07T17:55:17.483Z,3.08
2019-02-07T17:57:58.518Z,2.52
2019-02-07T18:01:05.679Z,3.40
2019-02-07T18:03:46.060Z,2.00
2019-02-07T18:06:25.785Z,1.77
2019-02-07T18:09:07.336Z,2.22
2019-02-07T18:11:46.831Z,2.27
2019-02-07T18:14:27.764Z,2.30
2019-02-07T18:17:08.329Z,3.83
2019-02-07T18:19:49.718Z,2.40
2019-02-07T18:22:28.658Z,2.10
2019-02-07T18:25:05.127Z,1.67
2019-02-07T18:27:44.795Z,1.82
2019-02-07T18:33:30.613Z,2.15
2019-02-07T18:36:11.148Z,1.92
2019-02-07T18:38:47.797Z,2.08
2019-02-07T18:41:37.779Z,1.85
2019-02-07T18:44:20.819Z,2.75
2019-02-07T18:47:01.054Z,2.10
2019-02-07T18:49:38.234Z,2.40
2019-02-07T18:52:18.285Z,2.37
2019-02-07T18:54:58.202Z,2.37
2019-02-07T18:57:41.723Z,2.27
2019-02-07T19:00:24.178Z,2.37
2019-02-07T19:03:00.792Z,2.17
2019-02-07T19:05:34.815Z,2.40
2019-02-07T19:08:12.512Z,1.60
2019-02-07T19:10:45.628Z,2.20
2019-02-07T19:13:22.981Z,1.75
2019-02-07T19:16:02.603Z,2.30
2019-02-07T19:18:37.942Z,2.58
2019-02-07T19:21:13.220Z,2.50
2019-02-07T19:23:51.283Z,2.42
2019-02-07T19:26:24.825Z,2.00
2019-02-07T19:28:58.456Z,2.40
2019-02-07T19:31:31.993Z,1.75
2019-02-07T19:34:04.525Z,2.70
2019-02-07T19:36:37.589Z,2.50
2019-02-07T19:39:11.218Z,2.20
2019-02-07T19:41:46.759Z,2.20
2019-02-07T19:44:20.450Z,2.35
2019-02-07T19:46:53.941Z,2.60
2019-02-07T19:49:28.878Z,2.12
2019-02-07T19:52:08.118Z,3.05
2019-02-07T19:54:43.744Z,2.15
2019-02-07T19:57:19.612Z,2.12
2019-02-07T19:59:52.813Z,3.40
2019-02-07T20:02:26.406Z,2.75
2019-02-07T20:04:59.972Z,2.00
2019-02-07T20:07:33.172Z,2.05
2019-02-07T20:10:08.023Z,3.40
2019-02-07T20:12:42.483Z,2.42
2019-02-07T20:15:19.383Z,2.95
2019-02-07T20:17:53.604Z,2.65
2019-02-07T20:20:28.704Z,4.28
2019-02-07T20:23:02.674Z,3.05
2019-02-07T20:25:37.759Z,2.20
2019-02-07T20:28:11.838Z,3.12
2019-02-07T20:30:44.519Z,2.20
2019-02-07T20:33:20.779Z,1.90
2019-02-07T20:35:55.583Z,2.10
2019-02-07T20:38:30.304Z,2.12
2019-02-07T20:41:03.830Z,2.10
2019-02-07T20:43:37.763Z,2.10
2019-02-07T20:46:11.340Z,2.27
2019-02-07T20:48:44.994Z,2.50
2019-02-07T20:51:18.969Z,2.05
2019-02-07T20:53:51.777Z,2.58
2019-02-07T20:56:25.621Z,2.27
2019-02-07T20:58:58.778Z,1.98
2019-02-07T21:01:33.069Z,2.20
2019-02-07T21:04:06.587Z,1.90
2019-02-07T21:06:39.883Z,2.15
2019-02-07T21:09:13.959Z,1.80
2019-02-07T21:11:51.056Z,2.42
2019-02-07T21:14:23.798Z,1.90
2019-02-07T21:16:57.860Z,1.57
2019-02-07T21:19:31.365Z,1.75
2019-02-07T21:22:04.127Z,2.02
2019-02-07T21:24:38.144Z,2.22
2019-02-07T21:27:11.655Z,2.00
2019-02-07T21:29:48.193Z,2.33
2019-02-07T21:32:20.523Z,2.47
2019-02-07T21:34:53.488Z,2.72
2019-02-07T21:37:32.068Z,2.20
2019-02-07T21:40:06.575Z,2.80
2019-02-07T21:42:40.349Z,1.87
2019-02-07T21:45:16.466Z,1.85
2019-02-07T21:47:49.202Z,2.98
2019-02-07T21:50:24.697Z,1.87
2019-02-07T21:53:00.983Z,2.05
2019-02-07T21:55:34.854Z,2.40
2019-02-07T21:58:08.063Z,2.30
2019-02-07T22:00:44.931Z,2.80
2019-02-07T22:03:20.228Z,1.82
2019-02-07T22:05:53.831Z,2.20
2019-02-07T22:08:27.787Z,1.87
2019-02-07T22:11:12.546Z,1.90
2019-02-07T22:13:46.292Z,2.90
2019-02-07T22:16:19.862Z,2.10
2019-02-07T22:18:52.624Z,1.98
2019-02-07T22:21:25.273Z,1.80
2019-02-07T22:23:58.964Z,2.02
2019-02-07T22:26:33.042Z,1.98
2019-02-07T22:29:07.277Z,2.47
2019-02-07T22:31:40.333Z,2.10
2019-02-07T22:34:13.462Z,2.80
2019-02-07T22:36:46.158Z,2.10
2019-02-07T22:39:18.432Z,2.40
2019-02-07T22:41:51.093Z,2.52
2019-02-07T22:44:24.356Z,2.55
2019-02-07T22:46:57.889Z,3.30
2019-02-07T22:49:31.174Z,2.10
2019-02-07T22:52:04.890Z,2.40
2019-02-07T22:54:38.366Z,2.33
2019-02-07T22:57:11.850Z,2.12
2019-02-07T22:59:46.657Z,2.83
2019-02-07T23:02:24.391Z,2.30
2019-02-07T23:04:58.654Z,2.40
2019-02-07T23:07:31.614Z,3.77
2019-02-07T23:10:06.100Z,2.47
2019-02-07T23:12:40.389Z,2.70
2019-02-07T23:15:12.915Z,2.17
2019-02-07T23:17:47.437Z,2.70
2019-02-07T23:20:25.663Z,2.12
2019-02-07T23:23:05.727Z,2.30
2019-02-07T23:25:39.969Z,2.60
2019-02-07T23:28:12.561Z,2.20
2019-02-07T23:30:46.445Z,2.20
2019-02-07T23:33:20.743Z,2.08
2019-02-07T23:35:54.237Z,2.35
2019-02-07T23:38:27.827Z,2.00
2019-02-07T23:41:02.482Z,2.05
2019-02-07T23:43:35.926Z,2.67
2019-02-07T23:46:11.252Z,2.45
2019-02-07T23:48:43.960Z,3.05
2019-02-07T23:51:17.079Z,1.87
2019-02-07T23:53:51.605Z,2.25
2019-02-07T23:56:24.986Z,2.95
2019-02-07T23:58:58.662Z,3.00
